sensor_id;sensor_type;location;lat;lon;timestamp;temperature;humidity
5870;DHT22;2961;47.702;9.410;2023-09-19T00:00:08;15.20;99.90
5870;DHT22;2961;47.702;9.410;2023-09-19T00:02:35;15.20;99.90
5870;DHT22;2961;47.702;9.410;2023-09-19T00:05:05;15.30;99.90
5870;DHT22;2961;47.702;9.410;2023-09-19T00:07:33;15.30;99.90
5870;DHT22;2961;47.702;9.410;2023-09-19T00:10:02;15.30;99.90
5870;DHT22;2961;47.702;9.410;2023-09-19T00:12:30;15.30;99.90
5870;DHT22;2961;47.702;9.410;2023-09-19T00:14:57;15.30;99.90
5870;DHT22;2961;47.702;9.410;2023-09-19T00:17:27;15.30;99.90
5870;DHT22;2961;47.702;9.410;2023-09-19T00:19:56;15.30;99.90
5870;DHT22;2961;47.702;9.410;2023-09-19T00:22:22;15.30;99.90
5870;DHT22;2961;47.702;9.410;2023-09-19T00:24:51;15.30;99.90
5870;DHT22;2961;47.702;9.410;2023-09-19T00:27:18;15.40;99.90
5870;DHT22;2961;47.702;9.410;2023-09-19T00:29:45;15.30;99.90
5870;DHT22;2961;47.702;9.410;2023-09-19T00:32:12;15.30;99.90
5870;DHT22;2961;47.702;9.410;2023-09-19T00:34:40;15.30;99.90
5870;DHT22;2961;47.702;9.410;2023-09-19T00:37:08;15.20;99.90
5870;DHT22;2961;47.702;9.410;2023-09-19T00:39:36;15.10;99.90
5870;DHT22;2961;47.702;9.410;2023-09-19T00:42:04;15.10;99.90
5870;DHT22;2961;47.702;9.410;2023-09-19T00:44:30;15.10;99.90
5870;DHT22;2961;47.702;9.410;2023-09-19T00:47:00;15.20;99.90
5870;DHT22;2961;47.702;9.410;2023-09-19T00:49:27;15.30;99.90
5870;DHT22;2961;47.702;9.410;2023-09-19T00:51:57;15.30;99.90
5870;DHT22;2961;47.702;9.410;2023-09-19T00:54:25;15.40;99.90
5870;DHT22;2961;47.702;9.410;2023-09-19T00:56:53;15.50;99.90
5870;DHT22;2961;47.702;9.410;2023-09-19T00:59:20;15.60;99.90
5870;DHT22;2961;47.702;9.410;2023-09-19T01:01:48;15.60;99.90
5870;DHT22;2961;47.702;9.410;2023-09-19T01:04:18;15.60;99.90
5870;DHT22;2961;47.702;9.410;2023-09-19T01:06:45;15.50;99.90
5870;DHT22;2961;47.702;9.410;2023-09-19T01:09:13;15.60;99.90
5870;DHT22;2961;47.702;9.410;2023-09-19T01:11:43;15.60;99.90
5870;DHT22;2961;47.702;9.410;2023-09-19T01:14:19;15.60;99.90
5870;DHT22;2961;47.702;9.410;2023-09-19T01:16:53;15.60;99.90
5870;DHT22;2961;47.702;9.410;2023-09-19T01:19:50;15.70;99.90
5870;DHT22;2961;47.702;9.410;2023-09-19T01:22:25;15.70;99.90
5870;DHT22;2961;47.702;9.410;2023-09-19T01:25:17;15.80;99.90
5870;DHT22;2961;47.702;9.410;2023-09-19T01:28:10;15.80;99.90
5870;DHT22;2961;47.702;9.410;2023-09-19T01:30:44;15.80;99.90
5870;DHT22;2961;47.702;9.410;2023-09-19T01:33:11;15.80;99.90
5870;DHT22;2961;47.702;9.410;2023-09-19T01:35:38;15.80;99.90
5870;DHT22;2961;47.702;9.410;2023-09-19T01:38:05;15.80;99.90
5870;DHT22;2961;47.702;9.410;2023-09-19T01:40:40;15.90;99.90
5870;DHT22;2961;47.702;9.410;2023-09-19T01:43:12;15.90;99.90
5870;DHT22;2961;47.702;9.410;2023-09-19T01:45:52;15.90;99.90
5870;DHT22;2961;47.702;9.410;2023-09-19T01:48:32;15.90;99.90
5870;DHT22;2961;47.702;9.410;2023-09-19T01:51:05;16.00;99.90
5870;DHT22;2961;47.702;9.410;2023-09-19T01:53:35;15.90;99.90
5870;DHT22;2961;47.702;9.410;2023-09-19T01:56:05;15.90;99.90
5870;DHT22;2961;47.702;9.410;2023-09-19T01:58:41;15.90;99.90
5870;DHT22;2961;47.702;9.410;2023-09-19T02:01:12;16.00;99.90
5870;DHT22;2961;47.702;9.410;2023-09-19T02:03:44;16.00;99.90
5870;DHT22;2961;47.702;9.410;2023-09-19T02:06:14;16.00;99.90
5870;DHT22;2961;47.702;9.410;2023-09-19T02:08:41;16.00;99.90
5870;DHT22;2961;47.702;9.410;2023-09-19T02:11:08;15.90;99.90
5870;DHT22;2961;47.702;9.410;2023-09-19T02:13:35;15.90;99.90
5870;DHT22;2961;47.702;9.410;2023-09-19T02:16:03;15.90;99.90
5870;DHT22;2961;47.702;9.410;2023-09-19T02:18:33;15.90;99.90
5870;DHT22;2961;47.702;9.410;2023-09-19T02:21:00;15.80;99.90
5870;DHT22;2961;47.702;9.410;2023-09-19T02:23:27;15.90;99.90
5870;DHT22;2961;47.702;9.410;2023-09-19T02:25:56;15.90;99.90
5870;DHT22;2961;47.702;9.410;2023-09-19T02:28:23;15.90;99.90
5870;DHT22;2961;47.702;9.410;2023-09-19T02:30:55;15.90;99.90
5870;DHT22;2961;47.702;9.410;2023-09-19T02:33:22;15.90;99.90
5870;DHT22;2961;47.702;9.410;2023-09-19T02:35:54;15.90;99.90
5870;DHT22;2961;47.702;9.410;2023-09-19T02:38:23;15.90;99.90
5870;DHT22;2961;47.702;9.410;2023-09-19T02:40:50;15.90;99.90
5870;DHT22;2961;47.702;9.410;2023-09-19T02:43:17;15.90;99.90
5870;DHT22;2961;47.702;9.410;2023-09-19T02:45:45;15.90;99.90
5870;DHT22;2961;47.702;9.410;2023-09-19T02:48:15;15.90;99.90
5870;DHT22;2961;47.702;9.410;2023-09-19T02:50:42;15.90;99.90
5870;DHT22;2961;47.702;9.410;2023-09-19T02:53:11;15.90;99.90
5870;DHT22;2961;47.702;9.410;2023-09-19T02:55:39;15.90;99.90
5870;DHT22;2961;47.702;9.410;2023-09-19T02:58:07;15.90;99.90
5870;DHT22;2961;47.702;9.410;2023-09-19T03:00:37;16.00;99.90
5870;DHT22;2961;47.702;9.410;2023-09-19T03:03:04;16.00;99.90
5870;DHT22;2961;47.702;9.410;2023-09-19T03:05:33;15.90;99.90
5870;DHT22;2961;47.702;9.410;2023-09-19T03:08:01;15.90;99.90
5870;DHT22;2961;47.702;9.410;2023-09-19T03:10:29;15.90;99.90
5870;DHT22;2961;47.702;9.410;2023-09-19T03:12:57;15.80;99.90
5870;DHT22;2961;47.702;9.410;2023-09-19T03:15:25;15.80;99.90
5870;DHT22;2961;47.702;9.410;2023-09-19T03:17:52;15.90;99.90
5870;DHT22;2961;47.702;9.410;2023-09-19T03:20:19;15.90;99.90
5870;DHT22;2961;47.702;9.410;2023-09-19T03:22:46;16.00;99.90
5870;DHT22;2961;47.702;9.410;2023-09-19T03:25:13;16.10;99.90
5870;DHT22;2961;47.702;9.410;2023-09-19T03:27:42;16.20;99.90
5870;DHT22;2961;47.702;9.410;2023-09-19T03:30:09;16.30;99.90
5870;DHT22;2961;47.702;9.410;2023-09-19T03:32:44;16.30;99.90
5870;DHT22;2961;47.702;9.410;2023-09-19T03:35:11;16.30;99.90
5870;DHT22;2961;47.702;9.410;2023-09-19T03:37:39;16.30;99.90
5870;DHT22;2961;47.702;9.410;2023-09-19T03:40:07;16.30;99.90
5870;DHT22;2961;47.702;9.410;2023-09-19T03:42:38;16.30;99.90
5870;DHT22;2961;47.702;9.410;2023-09-19T03:45:07;16.30;99.90
5870;DHT22;2961;47.702;9.410;2023-09-19T03:47:37;16.20;99.90
5870;DHT22;2961;47.702;9.410;2023-09-19T03:50:05;16.10;99.90
5870;DHT22;2961;47.702;9.410;2023-09-19T03:52:32;16.10;99.90
5870;DHT22;2961;47.702;9.410;2023-09-19T03:54:59;16.00;99.90
5870;DHT22;2961;47.702;9.410;2023-09-19T03:57:26;16.00;99.90
5870;DHT22;2961;47.702;9.410;2023-09-19T03:59:52;16.00;99.90
5870;DHT22;2961;47.702;9.410;2023-09-19T04:02:21;16.00;99.90
5870;DHT22;2961;47.702;9.410;2023-09-19T04:04:49;15.90;99.90
5870;DHT22;2961;47.702;9.410;2023-09-19T04:07:16;15.90;99.90
5870;DHT22;2961;47.702;9.410;2023-09-19T04:09:44;15.90;99.90
5870;DHT22;2961;47.702;9.410;2023-09-19T04:12:11;15.90;99.90
5870;DHT22;2961;47.702;9.410;2023-09-19T04:14:38;15.90;99.90
5870;DHT22;2961;47.702;9.410;2023-09-19T04:17:05;15.90;99.90
5870;DHT22;2961;47.702;9.410;2023-09-19T04:19:33;15.80;99.90
5870;DHT22;2961;47.702;9.410;2023-09-19T04:22:00;15.80;99.90
5870;DHT22;2961;47.702;9.410;2023-09-19T04:24:26;15.70;99.90
5870;DHT22;2961;47.702;9.410;2023-09-19T04:26:53;15.70;99.90
5870;DHT22;2961;47.702;9.410;2023-09-19T04:29:20;15.70;99.90
5870;DHT22;2961;47.702;9.410;2023-09-19T04:31:47;15.60;99.90
5870;DHT22;2961;47.702;9.410;2023-09-19T04:34:13;15.60;99.90
5870;DHT22;2961;47.702;9.410;2023-09-19T04:36:44;15.60;99.90
5870;DHT22;2961;47.702;9.410;2023-09-19T04:39:11;15.70;99.90
5870;DHT22;2961;47.702;9.410;2023-09-19T04:41:38;15.70;99.90
5870;DHT22;2961;47.702;9.410;2023-09-19T04:44:06;15.60;99.90
5870;DHT22;2961;47.702;9.410;2023-09-19T04:46:33;15.70;99.90
5870;DHT22;2961;47.702;9.410;2023-09-19T04:49:00;15.70;99.90
5870;DHT22;2961;47.702;9.410;2023-09-19T04:51:27;15.60;99.90
5870;DHT22;2961;47.702;9.410;2023-09-19T04:54:00;15.60;99.90
5870;DHT22;2961;47.702;9.410;2023-09-19T04:56:27;15.70;99.90
5870;DHT22;2961;47.702;9.410;2023-09-19T04:58:54;15.80;99.90
5870;DHT22;2961;47.702;9.410;2023-09-19T05:01:21;15.80;99.90
5870;DHT22;2961;47.702;9.410;2023-09-19T05:03:48;15.80;99.90
5870;DHT22;2961;47.702;9.410;2023-09-19T05:06:17;15.80;99.90
5870;DHT22;2961;47.702;9.410;2023-09-19T05:08:46;15.80;99.90
5870;DHT22;2961;47.702;9.410;2023-09-19T05:11:18;15.80;99.90
5870;DHT22;2961;47.702;9.410;2023-09-19T05:13:45;15.80;99.90
5870;DHT22;2961;47.702;9.410;2023-09-19T05:16:12;15.90;99.90
5870;DHT22;2961;47.702;9.410;2023-09-19T05:18:39;15.80;99.90
5870;DHT22;2961;47.702;9.410;2023-09-19T05:21:06;15.80;99.90
5870;DHT22;2961;47.702;9.410;2023-09-19T05:23:33;15.80;99.90
5870;DHT22;2961;47.702;9.410;2023-09-19T05:26:00;15.80;99.90
5870;DHT22;2961;47.702;9.410;2023-09-19T05:28:28;15.90;99.90
5870;DHT22;2961;47.702;9.410;2023-09-19T05:30:55;15.90;99.90
5870;DHT22;2961;47.702;9.410;2023-09-19T05:33:24;16.00;99.90
5870;DHT22;2961;47.702;9.410;2023-09-19T05:35:52;16.00;99.90
5870;DHT22;2961;47.702;9.410;2023-09-19T05:38:19;16.00;99.90
5870;DHT22;2961;47.702;9.410;2023-09-19T05:40:46;16.00;99.90
5870;DHT22;2961;47.702;9.410;2023-09-19T05:43:14;16.00;99.90
5870;DHT22;2961;47.702;9.410;2023-09-19T05:45:42;16.10;99.90
5870;DHT22;2961;47.702;9.410;2023-09-19T05:48:10;16.10;99.90
5870;DHT22;2961;47.702;9.410;2023-09-19T05:50:39;16.10;99.90
5870;DHT22;2961;47.702;9.410;2023-09-19T05:53:06;16.20;99.90
5870;DHT22;2961;47.702;9.410;2023-09-19T05:55:33;16.30;99.90
5870;DHT22;2961;47.702;9.410;2023-09-19T05:58:00;16.30;99.90
5870;DHT22;2961;47.702;9.410;2023-09-19T06:00:29;16.40;99.90
5870;DHT22;2961;47.702;9.410;2023-09-19T06:02:59;16.40;99.90
5870;DHT22;2961;47.702;9.410;2023-09-19T06:05:27;16.60;99.90
5870;DHT22;2961;47.702;9.410;2023-09-19T06:07:56;16.60;99.90
5870;DHT22;2961;47.702;9.410;2023-09-19T06:10:25;16.70;99.90
5870;DHT22;2961;47.702;9.410;2023-09-19T06:12:53;16.80;99.90
5870;DHT22;2961;47.702;9.410;2023-09-19T06:15:20;16.80;99.90
5870;DHT22;2961;47.702;9.410;2023-09-19T06:17:50;17.00;99.90
5870;DHT22;2961;47.702;9.410;2023-09-19T06:20:22;17.10;99.90
5870;DHT22;2961;47.702;9.410;2023-09-19T06:22:49;17.20;99.90
5870;DHT22;2961;47.702;9.410;2023-09-19T06:25:17;17.20;99.90
5870;DHT22;2961;47.702;9.410;2023-09-19T06:27:44;17.20;99.90
5870;DHT22;2961;47.702;9.410;2023-09-19T06:30:12;17.20;99.90
5870;DHT22;2961;47.702;9.410;2023-09-19T06:32:39;17.20;99.90
5870;DHT22;2961;47.702;9.410;2023-09-19T06:35:09;17.10;99.90
5870;DHT22;2961;47.702;9.410;2023-09-19T06:37:38;17.20;99.90
5870;DHT22;2961;47.702;9.410;2023-09-19T06:40:07;17.30;99.90
5870;DHT22;2961;47.702;9.410;2023-09-19T06:42:39;17.50;99.90
5870;DHT22;2961;47.702;9.410;2023-09-19T06:45:07;17.60;99.90
5870;DHT22;2961;47.702;9.410;2023-09-19T06:47:34;17.70;99.90
5870;DHT22;2961;47.702;9.410;2023-09-19T06:50:02;17.70;99.90
5870;DHT22;2961;47.702;9.410;2023-09-19T06:52:31;17.70;99.90
5870;DHT22;2961;47.702;9.410;2023-09-19T06:54:59;17.60;99.90
5870;DHT22;2961;47.702;9.410;2023-09-19T06:57:28;17.70;99.90
5870;DHT22;2961;47.702;9.410;2023-09-19T06:59:56;17.70;99.90
5870;DHT22;2961;47.702;9.410;2023-09-19T07:02:22;17.80;99.90
5870;DHT22;2961;47.702;9.410;2023-09-19T07:04:49;17.80;99.90
5870;DHT22;2961;47.702;9.410;2023-09-19T07:07:16;17.90;99.90
5870;DHT22;2961;47.702;9.410;2023-09-19T07:09:43;18.00;99.90
5870;DHT22;2961;47.702;9.410;2023-09-19T07:12:11;18.00;99.90
5870;DHT22;2961;47.702;9.410;2023-09-19T07:14:38;18.00;99.90
5870;DHT22;2961;47.702;9.410;2023-09-19T07:17:06;17.90;99.90
5870;DHT22;2961;47.702;9.410;2023-09-19T07:19:33;18.00;99.90
5870;DHT22;2961;47.702;9.410;2023-09-19T07:22:00;18.00;99.90
5870;DHT22;2961;47.702;9.410;2023-09-19T07:24:28;17.90;99.90
5870;DHT22;2961;47.702;9.410;2023-09-19T07:26:54;18.00;99.90
5870;DHT22;2961;47.702;9.410;2023-09-19T07:29:23;18.10;99.90
5870;DHT22;2961;47.702;9.410;2023-09-19T07:31:49;18.20;99.90
5870;DHT22;2961;47.702;9.410;2023-09-19T07:34:16;18.50;99.90
5870;DHT22;2961;47.702;9.410;2023-09-19T07:36:43;18.70;99.90
5870;DHT22;2961;47.702;9.410;2023-09-19T07:39:10;18.90;99.90
5870;DHT22;2961;47.702;9.410;2023-09-19T07:41:37;19.00;99.90
5870;DHT22;2961;47.702;9.410;2023-09-19T07:44:04;19.10;99.90
5870;DHT22;2961;47.702;9.410;2023-09-19T07:46:33;19.20;99.90
5870;DHT22;2961;47.702;9.410;2023-09-19T07:48:59;19.30;99.90
5870;DHT22;2961;47.702;9.410;2023-09-19T07:51:26;19.20;99.90
5870;DHT22;2961;47.702;9.410;2023-09-19T07:53:53;19.20;99.90
5870;DHT22;2961;47.702;9.410;2023-09-19T07:56:21;19.10;99.90
5870;DHT22;2961;47.702;9.410;2023-09-19T07:58:49;19.10;99.90
5870;DHT22;2961;47.702;9.410;2023-09-19T08:01:15;19.00;99.90
5870;DHT22;2961;47.702;9.410;2023-09-19T08:03:44;19.00;99.90
5870;DHT22;2961;47.702;9.410;2023-09-19T08:06:10;19.00;99.90
5870;DHT22;2961;47.702;9.410;2023-09-19T08:08:40;19.10;99.90
5870;DHT22;2961;47.702;9.410;2023-09-19T08:11:07;19.00;99.90
5870;DHT22;2961;47.702;9.410;2023-09-19T08:13:37;19.00;99.90
5870;DHT22;2961;47.702;9.410;2023-09-19T08:16:06;19.10;99.90
5870;DHT22;2961;47.702;9.410;2023-09-19T08:18:33;19.10;99.90
5870;DHT22;2961;47.702;9.410;2023-09-19T08:21:01;19.10;99.90
5870;DHT22;2961;47.702;9.410;2023-09-19T08:23:28;19.10;99.90
5870;DHT22;2961;47.702;9.410;2023-09-19T08:25:57;19.10;99.90
5870;DHT22;2961;47.702;9.410;2023-09-19T08:28:28;19.10;99.90
5870;DHT22;2961;47.702;9.410;2023-09-19T08:30:55;19.20;99.90
5870;DHT22;2961;47.702;9.410;2023-09-19T08:33:23;19.30;99.90
5870;DHT22;2961;47.702;9.410;2023-09-19T08:35:50;19.40;99.90
5870;DHT22;2961;47.702;9.410;2023-09-19T08:38:18;19.40;99.90
5870;DHT22;2961;47.702;9.410;2023-09-19T08:40:45;19.60;99.90
5870;DHT22;2961;47.702;9.410;2023-09-19T08:43:12;19.70;99.90
5870;DHT22;2961;47.702;9.410;2023-09-19T08:45:39;19.80;99.90
5870;DHT22;2961;47.702;9.410;2023-09-19T08:48:17;20.00;99.90
5870;DHT22;2961;47.702;9.410;2023-09-19T08:50:49;20.30;99.90
5870;DHT22;2961;47.702;9.410;2023-09-19T08:53:30;20.40;99.90
5870;DHT22;2961;47.702;9.410;2023-09-19T08:56:01;20.50;99.90
5870;DHT22;2961;47.702;9.410;2023-09-19T08:58:33;20.70;99.90
5870;DHT22;2961;47.702;9.410;2023-09-19T09:01:01;20.80;99.90
5870;DHT22;2961;47.702;9.410;2023-09-19T09:03:32;21.00;99.90
5870;DHT22;2961;47.702;9.410;2023-09-19T09:06:00;21.10;99.90
5870;DHT22;2961;47.702;9.410;2023-09-19T09:08:30;21.30;99.90
5870;DHT22;2961;47.702;9.410;2023-09-19T09:10:58;21.30;99.90
5870;DHT22;2961;47.702;9.410;2023-09-19T09:13:25;21.00;99.90
5870;DHT22;2961;47.702;9.410;2023-09-19T09:15:53;20.90;99.90
5870;DHT22;2961;47.702;9.410;2023-09-19T09:18:20;20.90;99.90
5870;DHT22;2961;47.702;9.410;2023-09-19T09:20:48;20.90;99.90
5870;DHT22;2961;47.702;9.410;2023-09-19T09:23:14;21.00;99.90
5870;DHT22;2961;47.702;9.410;2023-09-19T09:25:50;21.10;99.90
5870;DHT22;2961;47.702;9.410;2023-09-19T09:28:21;21.10;99.90
5870;DHT22;2961;47.702;9.410;2023-09-19T09:30:48;21.10;99.90
5870;DHT22;2961;47.702;9.410;2023-09-19T09:33:16;21.00;99.90
5870;DHT22;2961;47.702;9.410;2023-09-19T09:35:50;20.90;99.90
5870;DHT22;2961;47.702;9.410;2023-09-19T09:38:19;20.80;99.90
5870;DHT22;2961;47.702;9.410;2023-09-19T09:40:49;20.70;99.90
5870;DHT22;2961;47.702;9.410;2023-09-19T09:43:34;20.70;99.90
5870;DHT22;2961;47.702;9.410;2023-09-19T09:46:13;20.70;99.90
5870;DHT22;2961;47.702;9.410;2023-09-19T09:49:00;20.80;99.90
5870;DHT22;2961;47.702;9.410;2023-09-19T09:51:48;20.90;99.90
5870;DHT22;2961;47.702;9.410;2023-09-19T09:54:23;21.10;99.90
5870;DHT22;2961;47.702;9.410;2023-09-19T09:56:55;21.20;99.90
5870;DHT22;2961;47.702;9.410;2023-09-19T09:59:44;21.40;99.90
5870;DHT22;2961;47.702;9.410;2023-09-19T10:02:13;21.40;99.90
5870;DHT22;2961;47.702;9.410;2023-09-19T10:04:42;21.30;99.90
5870;DHT22;2961;47.702;9.410;2023-09-19T10:07:28;21.20;99.90
5870;DHT22;2961;47.702;9.410;2023-09-19T10:09:59;21.20;99.90
5870;DHT22;2961;47.702;9.410;2023-09-19T10:12:39;21.30;99.90
5870;DHT22;2961;47.702;9.410;2023-09-19T10:15:09;21.30;99.90
5870;DHT22;2961;47.702;9.410;2023-09-19T10:17:39;21.40;99.90
5870;DHT22;2961;47.702;9.410;2023-09-19T10:20:10;21.50;99.90
5870;DHT22;2961;47.702;9.410;2023-09-19T10:22:48;21.50;99.90
5870;DHT22;2961;47.702;9.410;2023-09-19T10:25:25;21.60;99.90
5870;DHT22;2961;47.702;9.410;2023-09-19T10:27:56;21.60;99.90
5870;DHT22;2961;47.702;9.410;2023-09-19T10:30:25;21.50;99.90
5870;DHT22;2961;47.702;9.410;2023-09-19T10:33:00;21.50;99.90
5870;DHT22;2961;47.702;9.410;2023-09-19T10:35:27;21.60;99.90
5870;DHT22;2961;47.702;9.410;2023-09-19T10:37:56;21.40;99.90
5870;DHT22;2961;47.702;9.410;2023-09-19T10:40:24;21.30;99.90
5870;DHT22;2961;47.702;9.410;2023-09-19T10:43:00;21.30;99.90
5870;DHT22;2961;47.702;9.410;2023-09-19T10:45:30;21.20;99.90
5870;DHT22;2961;47.702;9.410;2023-09-19T10:47:58;21.20;99.90
5870;DHT22;2961;47.702;9.410;2023-09-19T10:50:25;21.00;99.90
5870;DHT22;2961;47.702;9.410;2023-09-19T10:53:00;21.00;99.90
5870;DHT22;2961;47.702;9.410;2023-09-19T10:55:31;20.80;99.90
5870;DHT22;2961;47.702;9.410;2023-09-19T10:58:00;20.60;99.90
5870;DHT22;2961;47.702;9.410;2023-09-19T11:00:30;20.60;99.90
5870;DHT22;2961;47.702;9.410;2023-09-19T11:03:17;20.70;99.90
5870;DHT22;2961;47.702;9.410;2023-09-19T11:06:01;20.80;99.90
5870;DHT22;2961;47.702;9.410;2023-09-19T11:08:28;21.00;99.90
5870;DHT22;2961;47.702;9.410;2023-09-19T11:10:55;21.20;99.90
5870;DHT22;2961;47.702;9.410;2023-09-19T11:13:26;21.40;99.90
5870;DHT22;2961;47.702;9.410;2023-09-19T11:16:03;21.50;99.90
5870;DHT22;2961;47.702;9.410;2023-09-19T11:18:51;21.60;99.90
5870;DHT22;2961;47.702;9.410;2023-09-19T11:21:42;21.70;99.90
5870;DHT22;2961;47.702;9.410;2023-09-19T11:24:32;21.70;99.90
5870;DHT22;2961;47.702;9.410;2023-09-19T11:27:12;21.50;99.90
5870;DHT22;2961;47.702;9.410;2023-09-19T11:29:41;21.50;99.90
5870;DHT22;2961;47.702;9.410;2023-09-19T11:32:08;21.40;99.90
5870;DHT22;2961;47.702;9.410;2023-09-19T11:34:43;21.30;99.90
5870;DHT22;2961;47.702;9.410;2023-09-19T11:40:45;21.40;99.90
5870;DHT22;2961;47.702;9.410;2023-09-19T11:43:31;21.60;99.90
5870;DHT22;2961;47.702;9.410;2023-09-19T11:46:07;21.60;99.90
5870;DHT22;2961;47.702;9.410;2023-09-19T11:48:35;21.70;99.90
5870;DHT22;2961;47.702;9.410;2023-09-19T11:51:12;21.80;99.90
5870;DHT22;2961;47.702;9.410;2023-09-19T11:53:45;21.90;99.90
5870;DHT22;2961;47.702;9.410;2023-09-19T11:56:14;22.00;99.90
5870;DHT22;2961;47.702;9.410;2023-09-19T11:58:43;22.10;99.90
5870;DHT22;2961;47.702;9.410;2023-09-19T12:01:13;22.20;99.90
5870;DHT22;2961;47.702;9.410;2023-09-19T12:03:47;22.40;99.90
5870;DHT22;2961;47.702;9.410;2023-09-19T12:06:15;22.30;99.90
5870;DHT22;2961;47.702;9.410;2023-09-19T12:08:42;22.10;99.90
5870;DHT22;2961;47.702;9.410;2023-09-19T12:11:13;22.00;99.90
5870;DHT22;2961;47.702;9.410;2023-09-19T12:13:42;22.00;99.90
5870;DHT22;2961;47.702;9.410;2023-09-19T12:16:15;21.90;99.90
5870;DHT22;2961;47.702;9.410;2023-09-19T12:18:43;22.10;99.90
5870;DHT22;2961;47.702;9.410;2023-09-19T12:21:28;22.20;99.90
5870;DHT22;2961;47.702;9.410;2023-09-19T12:23:58;22.30;99.90
5870;DHT22;2961;47.702;9.410;2023-09-19T12:26:26;22.30;99.90
5870;DHT22;2961;47.702;9.410;2023-09-19T12:28:54;22.30;99.90
5870;DHT22;2961;47.702;9.410;2023-09-19T12:31:22;22.20;99.90
5870;DHT22;2961;47.702;9.410;2023-09-19T12:33:53;22.10;99.90
5870;DHT22;2961;47.702;9.410;2023-09-19T12:36:21;22.10;99.90
5870;DHT22;2961;47.702;9.410;2023-09-19T12:38:54;22.00;99.90
5870;DHT22;2961;47.702;9.410;2023-09-19T12:41:22;22.00;99.90
5870;DHT22;2961;47.702;9.410;2023-09-19T12:43:49;21.90;99.90
5870;DHT22;2961;47.702;9.410;2023-09-19T12:46:20;21.90;99.90
5870;DHT22;2961;47.702;9.410;2023-09-19T12:49:15;21.80;99.90
5870;DHT22;2961;47.702;9.410;2023-09-19T12:51:44;21.80;99.90
5870;DHT22;2961;47.702;9.410;2023-09-19T12:54:12;21.70;99.90
5870;DHT22;2961;47.702;9.410;2023-09-19T12:56:41;21.70;99.90
5870;DHT22;2961;47.702;9.410;2023-09-19T12:59:11;21.70;99.90
5870;DHT22;2961;47.702;9.410;2023-09-19T13:01:39;21.70;99.90
5870;DHT22;2961;47.702;9.410;2023-09-19T13:04:12;21.70;99.90
5870;DHT22;2961;47.702;9.410;2023-09-19T13:06:40;21.70;99.90
5870;DHT22;2961;47.702;9.410;2023-09-19T13:09:10;21.60;99.90
5870;DHT22;2961;47.702;9.410;2023-09-19T13:11:37;21.60;99.90
5870;DHT22;2961;47.702;9.410;2023-09-19T13:14:20;21.60;99.90
5870;DHT22;2961;47.702;9.410;2023-09-19T13:16:55;21.80;99.90
5870;DHT22;2961;47.702;9.410;2023-09-19T13:19:37;21.90;99.90
5870;DHT22;2961;47.702;9.410;2023-09-19T13:22:05;22.00;99.90
5870;DHT22;2961;47.702;9.410;2023-09-19T13:24:34;22.20;99.90
5870;DHT22;2961;47.702;9.410;2023-09-19T13:27:05;22.50;99.90
5870;DHT22;2961;47.702;9.410;2023-09-19T13:29:32;22.60;99.90
5870;DHT22;2961;47.702;9.410;2023-09-19T13:31:59;22.70;99.90
5870;DHT22;2961;47.702;9.410;2023-09-19T13:34:27;22.90;99.90
5870;DHT22;2961;47.702;9.410;2023-09-19T13:36:56;22.90;99.90
5870;DHT22;2961;47.702;9.410;2023-09-19T13:39:24;23.10;99.90
5870;DHT22;2961;47.702;9.410;2023-09-19T13:41:51;23.10;99.90
5870;DHT22;2961;47.702;9.410;2023-09-19T13:44:18;23.10;99.90
5870;DHT22;2961;47.702;9.410;2023-09-19T13:46:45;23.00;99.90
5870;DHT22;2961;47.702;9.410;2023-09-19T13:49:12;22.80;99.90
5870;DHT22;2961;47.702;9.410;2023-09-19T13:51:39;22.60;99.90
5870;DHT22;2961;47.702;9.410;2023-09-19T13:54:10;22.50;99.90
5870;DHT22;2961;47.702;9.410;2023-09-19T13:56:38;22.40;99.90
5870;DHT22;2961;47.702;9.410;2023-09-19T13:59:05;22.40;99.90
5870;DHT22;2961;47.702;9.410;2023-09-19T14:01:32;22.40;99.90
5870;DHT22;2961;47.702;9.410;2023-09-19T14:03:58;22.40;99.90
5870;DHT22;2961;47.702;9.410;2023-09-19T14:06:26;22.40;99.90
5870;DHT22;2961;47.702;9.410;2023-09-19T14:08:53;22.40;99.90
5870;DHT22;2961;47.702;9.410;2023-09-19T14:11:22;22.40;99.90
5870;DHT22;2961;47.702;9.410;2023-09-19T14:13:49;22.30;99.90
5870;DHT22;2961;47.702;9.410;2023-09-19T14:16:17;22.20;99.90
5870;DHT22;2961;47.702;9.410;2023-09-19T14:18:45;22.20;99.90
5870;DHT22;2961;47.702;9.410;2023-09-19T14:21:12;22.20;99.90
5870;DHT22;2961;47.702;9.410;2023-09-19T14:23:40;22.10;99.90
5870;DHT22;2961;47.702;9.410;2023-09-19T14:26:07;22.10;99.90
5870;DHT22;2961;47.702;9.410;2023-09-19T14:28:36;22.00;99.90
5870;DHT22;2961;47.702;9.410;2023-09-19T14:31:05;22.00;99.90
5870;DHT22;2961;47.702;9.410;2023-09-19T14:33:32;22.00;99.90
5870;DHT22;2961;47.702;9.410;2023-09-19T14:36:02;22.00;99.90
5870;DHT22;2961;47.702;9.410;2023-09-19T14:38:31;22.00;99.90
5870;DHT22;2961;47.702;9.410;2023-09-19T14:40:59;22.00;99.90
5870;DHT22;2961;47.702;9.410;2023-09-19T14:43:26;21.80;99.90
5870;DHT22;2961;47.702;9.410;2023-09-19T14:45:56;21.80;99.90
5870;DHT22;2961;47.702;9.410;2023-09-19T14:48:23;21.70;99.90
5870;DHT22;2961;47.702;9.410;2023-09-19T14:50:51;21.80;99.90
5870;DHT22;2961;47.702;9.410;2023-09-19T14:53:18;21.70;99.90
5870;DHT22;2961;47.702;9.410;2023-09-19T14:55:45;21.70;99.90
5870;DHT22;2961;47.702;9.410;2023-09-19T14:58:13;21.60;99.90
5870;DHT22;2961;47.702;9.410;2023-09-19T15:00:40;21.60;99.90
5870;DHT22;2961;47.702;9.410;2023-09-19T15:03:08;21.70;99.90
5870;DHT22;2961;47.702;9.410;2023-09-19T15:05:35;21.60;99.90
5870;DHT22;2961;47.702;9.410;2023-09-19T15:08:02;21.60;99.90
5870;DHT22;2961;47.702;9.410;2023-09-19T15:10:28;21.50;99.90
5870;DHT22;2961;47.702;9.410;2023-09-19T15:12:56;21.50;99.90
5870;DHT22;2961;47.702;9.410;2023-09-19T15:15:22;21.50;99.90
5870;DHT22;2961;47.702;9.410;2023-09-19T15:17:49;21.40;99.90
5870;DHT22;2961;47.702;9.410;2023-09-19T15:20:18;21.50;99.90
5870;DHT22;2961;47.702;9.410;2023-09-19T15:22:44;21.50;99.90
5870;DHT22;2961;47.702;9.410;2023-09-19T15:25:17;21.30;99.90
5870;DHT22;2961;47.702;9.410;2023-09-19T15:27:44;21.30;99.90
5870;DHT22;2961;47.702;9.410;2023-09-19T15:30:14;21.30;99.90
5870;DHT22;2961;47.702;9.410;2023-09-19T15:32:41;21.30;99.90
5870;DHT22;2961;47.702;9.410;2023-09-19T15:35:08;21.30;99.90
5870;DHT22;2961;47.702;9.410;2023-09-19T15:37:40;21.30;99.90
5870;DHT22;2961;47.702;9.410;2023-09-19T15:40:08;21.30;99.90
5870;DHT22;2961;47.702;9.410;2023-09-19T15:42:36;21.20;99.90
5870;DHT22;2961;47.702;9.410;2023-09-19T15:45:04;21.10;99.90
5870;DHT22;2961;47.702;9.410;2023-09-19T15:47:30;20.90;99.90
5870;DHT22;2961;47.702;9.410;2023-09-19T15:49:57;20.80;99.90
5870;DHT22;2961;47.702;9.410;2023-09-19T15:52:24;20.60;99.90
5870;DHT22;2961;47.702;9.410;2023-09-19T15:54:53;20.40;99.90
5870;DHT22;2961;47.702;9.410;2023-09-19T15:57:20;20.30;99.90
5870;DHT22;2961;47.702;9.410;2023-09-19T15:59:46;20.30;99.90
5870;DHT22;2961;47.702;9.410;2023-09-19T16:02:13;20.30;99.90
5870;DHT22;2961;47.702;9.410;2023-09-19T16:04:40;20.30;99.90
5870;DHT22;2961;47.702;9.410;2023-09-19T16:07:09;20.30;99.90
5870;DHT22;2961;47.702;9.410;2023-09-19T16:09:36;20.30;99.90
5870;DHT22;2961;47.702;9.410;2023-09-19T16:12:05;20.30;99.90
5870;DHT22;2961;47.702;9.410;2023-09-19T16:14:32;20.20;99.90
5870;DHT22;2961;47.702;9.410;2023-09-19T16:16:59;20.20;99.90
5870;DHT22;2961;47.702;9.410;2023-09-19T16:19:27;20.20;99.90